Time;durP1;ratioP1;P1;durP2;ratioP2;P2;SDS_P1;SDS_P2;PMS_P1;PMS_P2;Temp;Humidity;BMP_temperature;BMP_pressure;BME280_temperature;BME280_humidity;BME280_pressure;Samples;Min_cycle;Max_cycle;Signal;HPM_P1;HPM_P2
2021/10/27 00:00:24;;;;;;;0.15;0.10;;;;;;;;;;5034574;28;20033;-67
2021/10/27 00:02:49;;;;;;;0.27;0.10;;;;;;;;;;5034360;28;20116;-66
2021/10/27 00:05:14;;;;;;;0.98;0.25;;;;;;;;;;5034654;28;20706;-67
2021/10/27 00:07:40;;;;;;;1.17;0.60;;;;;;;;;;5034301;28;20433;-68
2021/10/27 00:10:05;;;;;;;0.25;0.13;;;;;;;;;;5034509;28;20304;-67
2021/10/27 00:12:30;;;;;;;0.20;0.10;;;;;;;;;;5034238;28;20018;-65
2021/10/27 00:14:56;;;;;;;0.35;0.10;;;;;;;;;;5034368;28;20144;-67
2021/10/27 00:17:22;;;;;;;0.55;0.20;;;;;;;;;;5034466;28;20385;-67
2021/10/27 00:19:47;;;;;;;0.10;0.00;;;;;;;;;;5033737;28;20033;-66
2021/10/27 00:22:12;;;;;;;0.50;0.15;;;;;;;;;;5034359;28;20048;-66
2021/10/27 00:24:38;;;;;;;0.13;0.10;;;;;;;;;;5033445;28;20018;-66
2021/10/27 00:27:06;;;;;;;0.30;0.17;;;;;;;;;;5034099;28;20080;-67
2021/10/27 00:29:32;;;;;;;1.00;0.10;;;;;;;;;;5034101;28;20391;-65
2021/10/27 00:31:57;;;;;;;0.70;0.20;;;;;;;;;;5033887;28;20021;-67
2021/10/27 00:34:22;;;;;;;0.27;0.10;;;;;;;;;;5034205;28;20030;-67
2021/10/27 00:36:47;;;;;;;1.02;0.13;;;;;;;;;;5033888;28;20341;-66
2021/10/27 00:39:13;;;;;;;0.32;0.00;;;;;;;;;;5033989;28;20035;-68
2021/10/27 00:41:41;;;;;;;0.10;0.10;;;;;;;;;;5033776;28;20495;-65
2021/10/27 00:44:16;;;;;;;0.60;0.10;;;;;;;;;;5033934;28;20018;-67
2021/10/27 00:46:41;;;;;;;0.70;0.10;;;;;;;;;;5033677;28;20048;-66
2021/10/27 00:49:06;;;;;;;0.82;0.17;;;;;;;;;;5033585;28;20057;-68
2021/10/27 00:51:31;;;;;;;0.57;0.10;;;;;;;;;;5033886;28;20480;-67
2021/10/27 00:53:57;;;;;;;0.75;0.20;;;;;;;;;;5033629;28;20100;-66
2021/10/27 00:56:22;;;;;;;0.65;0.20;;;;;;;;;;5033595;28;20032;-67
2021/10/27 00:58:49;;;;;;;0.08;0.08;;;;;;;;;;5033105;28;20511;-66
2021/10/27 01:01:14;;;;;;;0.22;0.10;;;;;;;;;;5033572;28;20622;-67
2021/10/27 01:03:40;;;;;;;0.45;0.13;;;;;;;;;;5033261;28;20100;-66
2021/10/27 01:06:05;;;;;;;0.65;0.10;;;;;;;;;;5033606;28;20017;-67
2021/10/27 01:08:31;;;;;;;1.55;0.15;;;;;;;;;;5033476;28;20036;-67
2021/10/27 01:10:56;;;;;;;0.13;0.05;;;;;;;;;;5031831;28;20013;-66
2021/10/27 01:13:22;;;;;;;1.00;0.08;;;;;;;;;;5033610;28;20037;-68
2021/10/27 01:15:47;;;;;;;0.60;0.20;;;;;;;;;;5033101;28;20032;-67
2021/10/27 01:18:13;;;;;;;0.30;0.20;;;;;;;;;;5033505;28;20404;-65
2021/10/27 01:20:39;;;;;;;0.40;0.10;;;;;;;;;;5033118;28;20274;-66
2021/10/27 01:23:04;;;;;;;0.43;0.20;;;;;;;;;;5033494;28;20021;-67
2021/10/27 01:25:30;;;;;;;1.08;0.30;;;;;;;;;;5031921;28;20013;-68
2021/10/27 01:27:56;;;;;;;0.63;0.10;;;;;;;;;;5033193;28;20464;-66
2021/10/27 01:30:23;;;;;;;0.20;0.00;;;;;;;;;;5033015;28;20025;-68
2021/10/27 01:32:50;;;;;;;0.47;0.10;;;;;;;;;;5032733;28;20022;-66
2021/10/27 01:35:16;;;;;;;0.40;0.40;;;;;;;;;;5033294;28;20086;-66
2021/10/27 01:37:43;;;;;;;0.28;0.10;;;;;;;;;;5032268;28;20013;-67
2021/10/27 01:40:10;;;;;;;0.73;0.20;;;;;;;;;;5031831;28;20092;-67
2021/10/27 01:42:36;;;;;;;0.47;0.43;;;;;;;;;;5033001;28;20616;-68
2021/10/27 01:45:02;;;;;;;0.55;0.15;;;;;;;;;;5033130;28;20106;-66
2021/10/27 01:47:27;;;;;;;1.13;0.20;;;;;;;;;;5032817;28;20017;-67
2021/10/27 01:49:53;;;;;;;0.98;0.20;;;;;;;;;;5033049;28;20416;-66
2021/10/27 01:52:19;;;;;;;0.50;0.10;;;;;;;;;;5033093;28;20152;-67
2021/10/27 01:54:44;;;;;;;0.55;0.30;;;;;;;;;;5032835;28;20021;-66
2021/10/27 01:57:11;;;;;;;0.47;0.13;;;;;;;;;;5033034;28;20036;-69
2021/10/27 01:59:36;;;;;;;0.10;0.00;;;;;;;;;;5032892;28;20376;-67
2021/10/27 02:02:01;;;;;;;0.45;0.20;;;;;;;;;;5040495;22;20045;-66
2021/10/27 02:04:26;;;;;;;0.73;0.35;;;;;;;;;;5033003;28;20071;-66
2021/10/27 02:06:52;;;;;;;0.10;0.10;;;;;;;;;;5032512;28;20288;-68
2021/10/27 02:09:17;;;;;;;1.20;0.22;;;;;;;;;;5032933;28;20029;-68
2021/10/27 02:11:43;;;;;;;0.70;0.15;;;;;;;;;;5031400;28;20067;-67
2021/10/27 02:14:08;;;;;;;1.13;0.08;;;;;;;;;;5032966;28;20018;-67
2021/10/27 02:16:34;;;;;;;0.38;0.10;;;;;;;;;;5032726;28;20020;-66
2021/10/27 02:18:59;;;;;;;0.55;0.20;;;;;;;;;;5032743;28;20049;-66
2021/10/27 02:21:24;;;;;;;0.45;0.10;;;;;;;;;;5032576;28;20030;-66
2021/10/27 02:23:51;;;;;;;0.90;0.07;;;;;;;;;;5032813;28;20633;-68
2021/10/27 02:26:18;;;;;;;0.35;0.10;;;;;;;;;;5032605;28;20259;-67
2021/10/27 02:28:43;;;;;;;1.23;0.20;;;;;;;;;;5032762;28;20026;-66
2021/10/27 02:31:09;;;;;;;0.52;0.00;;;;;;;;;;5032659;28;20018;-66
2021/10/27 02:33:34;;;;;;;0.95;0.13;;;;;;;;;;5032261;28;20460;-68
2021/10/27 02:35:59;;;;;;;0.65;0.10;;;;;;;;;;5032691;28;20116;-68
2021/10/27 02:38:25;;;;;;;0.05;0.00;;;;;;;;;;5032656;28;20018;-67
2021/10/27 02:40:50;;;;;;;0.28;0.10;;;;;;;;;;5032432;28;20365;-67
2021/10/27 02:43:16;;;;;;;0.55;0.10;;;;;;;;;;5032497;28;20469;-67
2021/10/27 02:45:46;;;;;;;0.20;0.10;;;;;;;;;;5032443;28;20101;-67
2021/10/27 02:48:11;;;;;;;0.30;0.10;;;;;;;;;;5033083;28;20017;-66
2021/10/27 02:50:36;;;;;;;0.00;0.00;;;;;;;;;;5035726;28;20325;-66
2021/10/27 02:53:01;;;;;;;0.10;0.10;;;;;;;;;;5036023;28;20496;-68
2021/10/27 02:55:30;;;;;;;0.35;0.17;;;;;;;;;;5036039;28;20025;-66
2021/10/27 02:57:55;;;;;;;1.08;0.10;;;;;;;;;;5035950;28;20063;-68
2021/10/27 03:00:21;;;;;;;0.38;0.20;;;;;;;;;;5035845;28;20077;-67
2021/10/27 03:02:46;;;;;;;0.15;0.00;;;;;;;;;;5035465;28;20013;-68
2021/10/27 03:05:11;;;;;;;0.57;0.22;;;;;;;;;;5035659;28;20029;-66
2021/10/27 03:07:37;;;;;;;0.00;0.00;;;;;;;;;;5035719;28;20020;-68
2021/10/27 03:10:02;;;;;;;0.45;0.10;;;;;;;;;;5035437;28;20030;-67
2021/10/27 03:12:28;;;;;;;0.57;0.28;;;;;;;;;;5035604;28;20105;-66
2021/10/27 03:14:54;;;;;;;0.28;0.08;;;;;;;;;;5035703;28;20108;-68
2021/10/27 03:17:19;;;;;;;0.47;0.10;;;;;;;;;;5035639;28;20021;-66
2021/10/27 03:19:45;;;;;;;0.20;0.10;;;;;;;;;;5035169;28;20545;-66
2021/10/27 03:22:11;;;;;;;0.47;0.10;;;;;;;;;;5035605;28;20030;-67
2021/10/27 03:24:36;;;;;;;0.10;0.00;;;;;;;;;;5035075;28;20063;-67
2021/10/27 03:27:02;;;;;;;0.17;0.15;;;;;;;;;;5035601;28;20053;-67
2021/10/27 03:29:27;;;;;;;0.22;0.10;;;;;;;;;;5035388;28;20384;-66
2021/10/27 03:31:53;;;;;;;0.40;0.10;;;;;;;;;;5035346;28;20091;-68
2021/10/27 03:34:18;;;;;;;0.00;0.00;;;;;;;;;;5035000;28;20017;-68
2021/10/27 03:36:44;;;;;;;0.45;0.10;;;;;;;;;;5035251;28;20075;-66
2021/10/27 03:39:09;;;;;;;0.30;0.10;;;;;;;;;;5035319;28;20032;-68
2021/10/27 03:41:35;;;;;;;0.52;0.30;;;;;;;;;;5034920;28;20052;-67
2021/10/27 03:44:00;;;;;;;0.60;0.20;;;;;;;;;;5035086;28;20024;-67
2021/10/27 03:46:25;;;;;;;0.05;0.00;;;;;;;;;;5034963;28;20021;-66
2021/10/27 03:48:50;;;;;;;0.43;0.20;;;;;;;;;;5034817;28;20365;-68
2021/10/27 03:51:17;;;;;;;0.40;0.10;;;;;;;;;;5035191;28;20031;-68
2021/10/27 03:53:42;;;;;;;0.20;0.10;;;;;;;;;;5034672;28;20021;-66
2021/10/27 03:56:08;;;;;;;0.32;0.20;;;;;;;;;;5034814;28;20022;-69
2021/10/27 03:58:33;;;;;;;1.33;0.10;;;;;;;;;;5034997;28;20021;-67
2021/10/27 04:00:59;;;;;;;0.47;0.10;;;;;;;;;;5033747;28;20396;-66
2021/10/27 04:03:24;;;;;;;0.20;0.20;;;;;;;;;;5034683;28;20017;-66
2021/10/27 04:05:49;;;;;;;0.28;0.10;;;;;;;;;;5034320;28;20343;-69
2021/10/27 04:08:16;;;;;;;1.00;0.20;;;;;;;;;;5034769;28;20018;-68
2021/10/27 04:10:45;;;;;;;0.60;0.10;;;;;;;;;;5034487;28;20480;-67
2021/10/27 04:13:11;;;;;;;0.43;0.10;;;;;;;;;;5034882;28;20071;-68
2021/10/27 04:15:36;;;;;;;0.20;0.10;;;;;;;;;;5034485;28;20021;-67
2021/10/27 04:18:02;;;;;;;0.28;0.10;;;;;;;;;;5034585;28;20053;-67
2021/10/27 04:20:28;;;;;;;0.22;0.10;;;;;;;;;;5034532;28;20084;-67
2021/10/27 04:22:55;;;;;;;0.43;0.10;;;;;;;;;;5034241;28;20045;-69
2021/10/27 04:25:20;;;;;;;0.60;0.03;;;;;;;;;;5034220;28;20487;-68
2021/10/27 04:27:45;;;;;;;0.40;0.10;;;;;;;;;;5034283;28;20026;-66
2021/10/27 04:30:12;;;;;;;0.60;0.20;;;;;;;;;;5034248;28;20472;-67
2021/10/27 04:32:37;;;;;;;0.52;0.20;;;;;;;;;;5032803;28;20021;-68
2021/10/27 04:35:04;;;;;;;1.90;0.57;;;;;;;;;;5034122;28;20032;-66
2021/10/27 04:37:33;;;;;;;1.08;0.10;;;;;;;;;;5034208;28;20013;-68
2021/10/27 04:39:59;;;;;;;1.13;0.10;;;;;;;;;;5033956;28;20043;-67
2021/10/27 04:42:24;;;;;;;0.10;0.00;;;;;;;;;;5034065;28;20097;-67
2021/10/27 04:44:49;;;;;;;0.80;0.17;;;;;;;;;;5033714;28;20475;-67
2021/10/27 04:47:14;;;;;;;0.25;0.00;;;;;;;;;;5034035;28;20265;-67
2021/10/27 04:49:40;;;;;;;0.40;0.10;;;;;;;;;;5033889;28;20026;-66
2021/10/27 04:52:05;;;;;;;0.57;0.20;;;;;;;;;;5033896;28;20033;-66
2021/10/27 04:54:31;;;;;;;0.40;0.10;;;;;;;;;;5033755;28;20041;-68
2021/10/27 04:56:56;;;;;;;1.17;0.10;;;;;;;;;;5033914;28;20085;-69
2021/10/27 04:59:21;;;;;;;0.10;0.05;;;;;;;;;;5033412;28;20025;-67
2021/10/27 05:01:46;;;;;;;0.52;0.20;;;;;;;;;;5033401;28;20041;-67
2021/10/27 05:04:12;;;;;;;0.70;0.08;;;;;;;;;;5033693;28;20018;-68
2021/10/27 05:06:37;;;;;;;0.35;0.10;;;;;;;;;;5033407;28;20052;-68
2021/10/27 05:09:03;;;;;;;0.08;0.00;;;;;;;;;;5033566;28;20029;-68
2021/10/27 05:11:28;;;;;;;0.20;0.10;;;;;;;;;;5032592;28;20025;-68
2021/10/27 05:13:55;;;;;;;1.13;0.15;;;;;;;;;;5033208;28;20029;-68
2021/10/27 05:16:21;;;;;;;0.93;0.00;;;;;;;;;;5033557;28;20018;-68
2021/10/27 05:18:46;;;;;;;0.47;0.10;;;;;;;;;;5032511;28;20026;-67
2021/10/27 05:21:12;;;;;;;0.35;0.10;;;;;;;;;;5033210;28;20030;-68
2021/10/27 05:23:37;;;;;;;0.77;0.10;;;;;;;;;;5033018;28;20152;-68
2021/10/27 05:26:03;;;;;;;0.43;0.10;;;;;;;;;;5033578;28;20464;-68
2021/10/27 05:28:28;;;;;;;0.30;0.15;;;;;;;;;;5033546;28;20361;-67
2021/10/27 05:30:54;;;;;;;0.10;0.00;;;;;;;;;;5032387;28;20492;-68
2021/10/27 05:33:20;;;;;;;0.40;0.10;;;;;;;;;;5033505;28;20488;-68
2021/10/27 05:35:45;;;;;;;0.13;0.03;;;;;;;;;;5033516;28;20018;-69
2021/10/27 05:38:10;;;;;;;0.15;0.03;;;;;;;;;;5033707;28;20067;-67
2021/10/27 05:40:36;;;;;;;0.30;0.10;;;;;;;;;;5033008;28;20045;-67
2021/10/27 05:43:09;;;;;;;0.70;0.20;;;;;;;;;;5033310;28;20021;-69
2021/10/27 05:45:34;;;;;;;0.10;0.00;;;;;;;;;;5033276;28;20018;-68
2021/10/27 05:48:01;;;;;;;0.10;0.08;;;;;;;;;;5033106;28;20017;-67
2021/10/27 05:55:41;;;;;;;0.52;0.20;;;;;;;;;;5033393;28;20091;-67
2021/10/27 05:58:09;;;;;;;1.00;0.15;;;;;;;;;;5033261;28;20026;-68
2021/10/27 06:00:35;;;;;;;0.80;0.20;;;;;;;;;;5032861;28;20076;-66
2021/10/27 06:03:01;;;;;;;1.02;0.20;;;;;;;;;;5033309;28;20059;-69
2021/10/27 06:05:26;;;;;;;0.00;0.00;;;;;;;;;;5032834;28;20025;-68
2021/10/27 06:07:53;;;;;;;0.47;0.10;;;;;;;;;;5032895;28;20085;-67
2021/10/27 06:10:20;;;;;;;0.38;0.20;;;;;;;;;;5033226;28;20104;-67
2021/10/27 06:12:46;;;;;;;0.10;0.03;;;;;;;;;;5033049;28;20037;-69
2021/10/27 06:15:12;;;;;;;0.52;0.13;;;;;;;;;;5033177;28;20460;-67
2021/10/27 06:17:38;;;;;;;0.10;0.10;;;;;;;;;;5032628;28;20453;-67
2021/10/27 06:20:04;;;;;;;0.47;0.20;;;;;;;;;;5033029;28;20075;-67
2021/10/27 06:22:29;;;;;;;0.00;0.00;;;;;;;;;;5033069;28;20024;-69
2021/10/27 06:25:01;;;;;;;0.80;0.10;;;;;;;;;;5036499;28;20071;-69
2021/10/27 06:27:28;;;;;;;0.20;0.10;;;;;;;;;;5036514;28;20414;-68
2021/10/27 06:29:57;;;;;;;0.30;0.00;;;;;;;;;;5036547;28;20080;-68
2021/10/27 06:35:12;;;;;;;0.38;0.10;;;;;;;;;;5036824;28;20453;-67
2021/10/27 06:38:00;;;;;;;0.60;0.10;;;;;;;;;;5036553;28;20560;-69
2021/10/27 06:46:11;;;;;;;0.10;0.08;;;;;;;;;;5036229;28;20083;-67
2021/10/27 06:48:39;;;;;;;0.00;0.00;;;;;;;;;;5036407;28;20083;-69
2021/10/27 06:51:04;;;;;;;0.20;0.10;;;;;;;;;;5036237;28;20030;-68
2021/10/27 06:53:31;;;;;;;1.08;0.10;;;;;;;;;;5036108;28;20021;-69
2021/10/27 06:55:57;;;;;;;0.25;0.00;;;;;;;;;;5036500;28;20041;-67
2021/10/27 06:58:23;;;;;;;0.82;0.28;;;;;;;;;;5036357;28;20056;-68
2021/10/27 07:00:52;;;;;;;0.50;0.10;;;;;;;;;;5035439;28;20053;-68
2021/10/27 07:03:44;;;;;;;1.45;0.20;;;;;;;;;;5036210;28;20010;-69
2021/10/27 07:17:07;;;;;;;0.00;0.00;;;;;;;;;;5035815;28;20036;-68
2021/10/27 07:19:33;;;;;;;0.32;0.10;;;;;;;;;;5035647;28;20109;-68
2021/10/27 07:21:59;;;;;;;0.10;0.10;;;;;;;;;;5035801;28;20475;-68
2021/10/27 07:24:25;;;;;;;0.85;0.20;;;;;;;;;;5035603;28;20380;-69
2021/10/27 07:26:51;;;;;;;0.45;0.10;;;;;;;;;;5035484;28;20138;-68
2021/10/27 07:29:19;;;;;;;0.10;0.05;;;;;;;;;;5035871;28;20061;-67
2021/10/27 07:31:48;;;;;;;0.20;0.05;;;;;;;;;;5035373;28;20017;-67
2021/10/27 07:34:14;;;;;;;0.17;0.03;;;;;;;;;;5035240;28;20056;-69
2021/10/27 07:42:07;;;;;;;0.20;0.00;;;;;;;;;;5035471;28;19947;-67
2021/10/27 07:44:34;;;;;;;0.70;0.10;;;;;;;;;;5035360;28;20017;-68
2021/10/27 07:46:59;;;;;;;0.52;0.20;;;;;;;;;;5035149;28;20273;-68
2021/10/27 07:49:26;;;;;;;1.23;0.17;;;;;;;;;;5035338;28;20429;-69
2021/10/27 07:51:51;;;;;;;0.38;0.10;;;;;;;;;;5034999;28;20021;-67
2021/10/27 07:54:18;;;;;;;0.10;0.03;;;;;;;;;;5034070;28;20026;-68
2021/10/27 07:56:45;;;;;;;0.45;0.10;;;;;;;;;;5035083;28;20388;-69
2021/10/27 07:59:11;;;;;;;0.10;0.05;;;;;;;;;;5034790;28;20400;-69
2021/10/27 08:01:37;;;;;;;0.20;0.00;;;;;;;;;;5034869;28;20068;-67
2021/10/27 08:04:02;;;;;;;0.90;0.20;;;;;;;;;;5035042;28;20379;-68
2021/10/27 08:06:35;;;;;;;0.95;0.10;;;;;;;;;;5033782;28;20017;-69
2021/10/27 08:09:02;;;;;;;0.20;0.20;;;;;;;;;;5034856;28;20013;-69
2021/10/27 08:11:28;;;;;;;0.05;0.05;;;;;;;;;;5033565;28;20107;-67
2021/10/27 08:13:55;;;;;;;0.73;0.10;;;;;;;;;;5034821;28;20100;-68
2021/10/27 08:16:20;;;;;;;0.75;0.10;;;;;;;;;;5034609;28;20025;-69
2021/10/27 08:18:46;;;;;;;0.30;0.10;;;;;;;;;;5034401;28;20021;-69
2021/10/27 08:21:11;;;;;;;0.52;0.10;;;;;;;;;;5034864;28;20035;-67
2021/10/27 08:23:40;;;;;;;0.10;0.00;;;;;;;;;;5034421;28;20025;-68
2021/10/27 08:26:15;;;;;;;0.85;0.20;;;;;;;;;;5034465;28;20603;-68
2021/10/27 08:28:43;;;;;;;0.52;0.25;;;;;;;;;;5034579;28;20025;-69
2021/10/27 08:31:27;;;;;;;0.10;0.10;;;;;;;;;;5034358;28;20473;-68
2021/10/27 08:36:19;;;;;;;0.88;0.10;;;;;;;;;;5034617;28;20030;-69
2021/10/27 08:38:45;;;;;;;0.00;0.00;;;;;;;;;;5034357;28;20057;-68
2021/10/27 08:41:12;;;;;;;0.13;0.08;;;;;;;;;;5034378;28;20041;-68
2021/10/27 08:43:37;;;;;;;0.22;0.10;;;;;;;;;;5034335;28;20021;-68
2021/10/27 08:46:06;;;;;;;0.20;0.00;;;;;;;;;;5034170;28;20365;-68
2021/10/27 08:48:33;;;;;;;0.30;0.10;;;;;;;;;;5034183;28;20247;-68
2021/10/27 08:51:00;;;;;;;0.50;0.20;;;;;;;;;;5033564;28;20661;-68
2021/10/27 08:53:25;;;;;;;1.08;0.10;;;;;;;;;;5034148;28;20372;-67
2021/10/27 08:55:52;;;;;;;0.60;0.20;;;;;;;;;;5034085;28;20071;-69
2021/10/27 08:58:28;;;;;;;0.10;0.00;;;;;;;;;;5034141;28;20017;-68
2021/10/27 09:04:34;;;;;;;0.05;0.00;;;;;;;;;;4992339;28;20639;-68
2021/10/27 09:07:14;;;;;;;0.13;0.10;;;;;;;;;;4992253;28;20026;-67
2021/10/27 09:35:49;;;;;;;0.20;0.17;;;;;;;;;;4933852;29;20034;-68
2021/10/27 10:05:41;;;;;;;0.28;0.10;;;;;;;;;;4901443;29;20032;-66
2021/10/27 10:08:07;;;;;;;0.85;0.60;;;;;;;;;;4917955;29;20108;-65
2021/10/27 10:10:33;;;;;;;1.08;0.10;;;;;;;;;;4969096;28;20110;-67
2021/10/27 10:12:59;;;;;;;0.25;0.10;;;;;;;;;;4971248;28;20049;-67
2021/10/27 10:15:28;;;;;;;0.22;0.00;;;;;;;;;;4967421;28;20102;-66
2021/10/27 10:17:54;;;;;;;0.17;0.10;;;;;;;;;;4975133;28;20025;-66
2021/10/27 10:20:20;;;;;;;0.43;0.10;;;;;;;;;;4975174;28;20023;-66
2021/10/27 10:22:46;;;;;;;0.15;0.10;;;;;;;;;;4975059;28;20069;-66
2021/10/27 10:25:17;;;;;;;0.43;0.10;;;;;;;;;;4975734;28;20027;-66
2021/10/27 10:27:43;;;;;;;0.73;0.03;;;;;;;;;;4975269;28;20351;-66
2021/10/27 10:30:39;;;;;;;1.42;0.20;;;;;;;;;;5026859;28;20063;-67
2021/10/27 10:33:06;;;;;;;0.77;0.40;;;;;;;;;;5030369;28;20068;-66
2021/10/27 10:36:14;;;;;;;0.63;0.08;;;;;;;;;;5036579;28;20100;-66
2021/10/27 10:41:28;;;;;;;0.57;0.10;;;;;;;;;;5036312;28;20033;-66
2021/10/27 10:58:46;;;;;;;0.20;0.20;;;;;;;;;;5035781;28;20040;-64
2021/10/27 11:01:37;;;;;;;0.20;0.10;;;;;;;;;;5035239;28;20088;-63
2021/10/27 11:27:33;;;;;;;0.40;0.10;;;;;;;;;;5010374;28;20068;-65
2021/10/27 11:41:20;;;;;;;0.50;0.10;;;;;;;;;;5012077;28;20148;-64
2021/10/27 11:46:40;;;;;;;0.50;0.10;;;;;;;;;;5020648;28;20053;-68
2021/10/27 11:49:09;;;;;;;0.20;0.10;;;;;;;;;;5013792;28;20504;-64
2021/10/27 11:51:34;;;;;;;0.60;0.10;;;;;;;;;;5012318;28;20104;-64
2021/10/27 11:54:09;;;;;;;0.17;0.05;;;;;;;;;;5009658;28;20453;-64
2021/10/27 11:56:34;;;;;;;1.10;0.20;;;;;;;;;;5011374;28;20013;-64
2021/10/27 11:59:00;;;;;;;0.40;0.10;;;;;;;;;;5012533;28;20010;-64
2021/10/27 12:01:38;;;;;;;1.58;0.40;;;;;;;;;;5011968;28;20053;-64
2021/10/27 12:04:05;;;;;;;0.52;0.10;;;;;;;;;;5021699;28;20091;-64
2021/10/27 12:09:21;;;;;;;0.10;0.10;;;;;;;;;;5034344;28;20026;-64
2021/10/27 12:12:10;;;;;;;0.68;0.10;;;;;;;;;;5032683;28;20037;-64
2021/10/27 12:14:43;;;;;;;0.30;0.10;;;;;;;;;;5033026;28;20088;-63
2021/10/27 12:17:33;;;;;;;0.40;0.10;;;;;;;;;;5032779;28;20139;-65
2021/10/27 12:20:00;;;;;;;0.20;0.08;;;;;;;;;;5038052;28;20469;-64
2021/10/27 12:22:25;;;;;;;0.10;0.10;;;;;;;;;;5048386;28;20477;-64
2021/10/27 12:24:58;;;;;;;0.25;0.10;;;;;;;;;;5033637;28;20029;-63
2021/10/27 12:27:29;;;;;;;0.30;0.13;;;;;;;;;;5034129;28;20018;-63
2021/10/27 12:29:56;;;;;;;0.08;0.08;;;;;;;;;;5033594;28;20087;-62
2021/10/27 12:32:23;;;;;;;2.08;0.52;;;;;;;;;;5032368;28;20033;-63
2021/10/27 12:34:48;;;;;;;1.45;0.20;;;;;;;;;;5032311;28;20029;-63
2021/10/27 12:37:34;;;;;;;0.43;0.30;;;;;;;;;;5032978;28;20024;-62
2021/10/27 12:40:12;;;;;;;0.40;0.10;;;;;;;;;;5031393;28;20021;-63
2021/10/27 12:42:38;;;;;;;0.77;0.40;;;;;;;;;;5032317;28;20457;-63
2021/10/27 12:45:04;;;;;;;2.22;0.25;;;;;;;;;;5033456;28;20033;-65
2021/10/27 12:47:33;;;;;;;0.70;0.20;;;;;;;;;;5033656;28;20013;-63
2021/10/27 12:50:03;;;;;;;2.63;0.20;;;;;;;;;;5033723;28;20041;-62
2021/10/27 12:52:32;;;;;;;0.40;0.30;;;;;;;;;;5033502;28;20083;-62
2021/10/27 12:55:15;;;;;;;1.10;0.10;;;;;;;;;;5033117;28;20035;-63
2021/10/27 12:57:42;;;;;;;0.57;0.30;;;;;;;;;;5031970;28;20082;-62
2021/10/27 13:00:11;;;;;;;0.90;0.20;;;;;;;;;;5032396;28;20389;-63
2021/10/27 13:02:40;;;;;;;0.70;0.13;;;;;;;;;;5034418;28;20044;-62
2021/10/27 13:05:21;;;;;;;0.20;0.10;;;;;;;;;;5031857;28;20017;-62
2021/10/27 13:07:54;;;;;;;0.90;0.20;;;;;;;;;;5035683;28;20017;-62
2021/10/27 13:10:35;;;;;;;1.50;0.30;;;;;;;;;;5031457;28;20029;-61
2021/10/27 13:13:16;;;;;;;0.45;0.30;;;;;;;;;;5029016;28;20047;-61
2021/10/27 13:15:55;;;;;;;0.40;0.25;;;;;;;;;;5031758;28;20017;-61
2021/10/27 13:18:40;;;;;;;0.28;0.25;;;;;;;;;;5033111;28;20043;-61
2021/10/27 13:21:24;;;;;;;1.23;0.55;;;;;;;;;;5032590;28;20120;-61
2021/10/27 13:31:58;;;;;;;0.45;0.10;;;;;;;;;;5030731;28;20024;-62
2021/10/27 13:34:24;;;;;;;0.70;0.10;;;;;;;;;;5026681;28;20022;-64
2021/10/27 13:36:49;;;;;;;0.30;0.15;;;;;;;;;;5031828;28;20022;-64
2021/10/27 13:39:14;;;;;;;0.85;0.20;;;;;;;;;;5032048;28;20101;-64
2021/10/27 13:41:40;;;;;;;0.25;0.20;;;;;;;;;;5034076;28;20025;-64
2021/10/27 13:44:18;;;;;;;0.38;0.28;;;;;;;;;;5033206;28;20022;-65
2021/10/27 14:08:27;;;;;;;0.75;0.35;;;;;;;;;;5009604;28;20065;-66
2021/10/27 14:11:24;;;;;;;0.75;0.40;;;;;;;;;;5011466;28;20076;-69
2021/10/27 14:19:28;;;;;;;0.28;0.10;;;;;;;;;;5002398;28;20435;-66
2021/10/27 15:19:38;;;;;;;0.87;0.20;;;;;;;;;;4994540;28;20033;-66
2021/10/27 15:22:15;;;;;;;0.52;0.20;;;;;;;;;;4994324;28;20268;-67
2021/10/27 15:25:04;;;;;;;0.40;0.10;;;;;;;;;;4993723;28;20021;-67
2021/10/27 15:32:48;;;;;;;0.20;0.10;;;;;;;;;;4993776;28;20031;-68
2021/10/27 15:50:57;;;;;;;0.13;0.13;;;;;;;;;;5035008;28;20024;-68
2021/10/27 15:53:23;;;;;;;0.25;0.20;;;;;;;;;;5035246;28;20021;-67
2021/10/27 15:55:50;;;;;;;0.80;0.17;;;;;;;;;;5034150;28;20487;-67
2021/10/27 15:58:15;;;;;;;0.30;0.10;;;;;;;;;;5035097;28;20112;-68
2021/10/27 16:00:40;;;;;;;0.73;0.20;;;;;;;;;;5034467;28;20450;-67
2021/10/27 16:03:07;;;;;;;0.40;0.20;;;;;;;;;;5034961;28;20309;-68
2021/10/27 16:05:34;;;;;;;0.10;0.10;;;;;;;;;;5034606;28;20365;-67
2021/10/27 16:07:59;;;;;;;0.90;0.20;;;;;;;;;;5034923;28;20025;-66
2021/10/27 16:10:25;;;;;;;0.65;0.52;;;;;;;;;;5034661;28;20028;-67
2021/10/27 16:12:51;;;;;;;0.80;0.10;;;;;;;;;;5034823;28;20063;-66
2021/10/27 16:15:37;;;;;;;1.33;0.30;;;;;;;;;;5034570;28;20025;-67
2021/10/27 16:18:03;;;;;;;0.52;0.10;;;;;;;;;;5034742;28;20021;-67
2021/10/27 16:20:30;;;;;;;1.00;0.20;;;;;;;;;;5034234;28;20021;-67
2021/10/27 16:22:55;;;;;;;0.10;0.10;;;;;;;;;;5034629;28;20025;-67
2021/10/27 16:25:21;;;;;;;0.70;0.10;;;;;;;;;;5034564;28;20013;-66
2021/10/27 16:27:47;;;;;;;0.22;0.20;;;;;;;;;;5033268;28;20072;-67
2021/10/27 16:30:13;;;;;;;1.08;0.20;;;;;;;;;;5034140;28;20025;-68
2021/10/27 16:32:38;;;;;;;0.10;0.10;;;;;;;;;;5033988;28;20032;-67
2021/10/27 16:35:04;;;;;;;0.10;0.10;;;;;;;;;;5034522;28;20060;-68
2021/10/27 16:37:29;;;;;;;0.82;0.20;;;;;;;;;;5034356;28;20033;-68
2021/10/27 16:39:55;;;;;;;0.75;0.10;;;;;;;;;;5034051;28;20116;-67
2021/10/27 16:42:22;;;;;;;0.45;0.10;;;;;;;;;;5033261;28;20072;-68
2021/10/27 16:44:47;;;;;;;0.28;0.20;;;;;;;;;;5034205;28;20036;-67
2021/10/27 16:47:13;;;;;;;0.30;0.13;;;;;;;;;;5033976;28;20447;-67
2021/10/27 16:49:38;;;;;;;0.13;0.13;;;;;;;;;;5034206;28;20028;-68
2021/10/27 16:52:04;;;;;;;0.20;0.10;;;;;;;;;;5034102;28;20031;-67
2021/10/27 16:54:29;;;;;;;0.40;0.17;;;;;;;;;;5033932;28;20025;-67
2021/10/27 16:56:56;;;;;;;0.45;0.10;;;;;;;;;;5033672;28;20033;-68
2021/10/27 16:59:21;;;;;;;0.52;0.13;;;;;;;;;;5033859;28;20461;-67
2021/10/27 17:01:47;;;;;;;0.20;0.10;;;;;;;;;;5033649;28;20171;-68
2021/10/27 17:04:12;;;;;;;0.23;0.20;;;;;;;;;;5033988;28;20065;-68
2021/10/27 17:06:38;;;;;;;0.10;0.00;;;;;;;;;;5033714;28;20296;-67
2021/10/27 17:09:04;;;;;;;0.40;0.10;;;;;;;;;;5033832;28;20037;-68
2021/10/27 17:11:30;;;;;;;0.85;0.20;;;;;;;;;;5033554;28;20029;-68
2021/10/27 17:13:56;;;;;;;0.22;0.00;;;;;;;;;;5033749;28;20017;-66
2021/10/27 17:16:21;;;;;;;0.25;0.10;;;;;;;;;;5033552;28;20514;-67
2021/10/27 17:18:47;;;;;;;0.77;0.38;;;;;;;;;;5033497;28;20047;-68
2021/10/27 17:21:14;;;;;;;0.85;0.28;;;;;;;;;;5033637;28;20040;-68
2021/10/27 17:23:40;;;;;;;0.38;0.28;;;;;;;;;;5033626;28;20017;-69
2021/10/27 17:26:05;;;;;;;0.40;0.20;;;;;;;;;;5033530;28;20092;-68
2021/10/27 17:28:31;;;;;;;0.43;0.17;;;;;;;;;;5033692;28;20033;-68
2021/10/27 17:30:57;;;;;;;0.08;0.05;;;;;;;;;;5033630;28;20049;-68
2021/10/27 17:33:23;;;;;;;1.30;0.20;;;;;;;;;;5033533;28;20021;-67
2021/10/27 17:35:49;;;;;;;1.05;0.20;;;;;;;;;;5033380;28;20059;-68
2021/10/27 17:38:14;;;;;;;0.63;0.10;;;;;;;;;;5033458;28;20045;-67
2021/10/27 17:40:43;;;;;;;0.98;0.20;;;;;;;;;;5033096;28;20053;-66
2021/10/27 17:43:10;;;;;;;0.63;0.15;;;;;;;;;;5033548;28;20009;-67
2021/10/27 17:45:36;;;;;;;0.50;0.30;;;;;;;;;;5033278;28;20379;-67
2021/10/27 17:48:16;;;;;;;0.47;0.15;;;;;;;;;;5033333;28;20021;-67
2021/10/27 17:58:41;;;;;;;0.55;0.10;;;;;;;;;;5033096;28;20389;-66
2021/10/27 18:01:07;;;;;;;0.45;0.15;;;;;;;;;;5033049;28;20072;-67
2021/10/27 18:03:33;;;;;;;0.10;0.00;;;;;;;;;;5031900;28;20421;-68
2021/10/27 18:05:59;;;;;;;0.75;0.20;;;;;;;;;;5033193;28;20144;-67
2021/10/27 18:08:25;;;;;;;1.08;0.25;;;;;;;;;;5033122;28;20023;-68
2021/10/27 18:10:54;;;;;;;0.10;0.10;;;;;;;;;;5033103;28;20083;-68
2021/10/27 18:13:23;;;;;;;0.70;0.10;;;;;;;;;;5033098;28;20092;-67
2021/10/27 18:15:53;;;;;;;0.47;0.20;;;;;;;;;;5033133;28;20045;-69
2021/10/27 18:18:44;;;;;;;0.20;0.20;;;;;;;;;;5032828;28;20516;-67
2021/10/27 18:21:14;;;;;;;0.17;0.10;;;;;;;;;;5036458;28;20068;-68
2021/10/27 18:42:35;;;;;;;0.70;0.30;;;;;;;;;;4995408;28;20382;-68
2021/10/27 18:45:02;;;;;;;0.95;0.17;;;;;;;;;;4995062;28;20037;-68
2021/10/27 18:47:29;;;;;;;0.73;0.05;;;;;;;;;;4994971;28;20057;-67
2021/10/27 18:49:56;;;;;;;0.47;0.10;;;;;;;;;;4994811;28;20026;-68
2021/10/27 18:52:42;;;;;;;0.40;0.25;;;;;;;;;;4978524;28;20506;-68
2021/10/27 18:55:11;;;;;;;0.17;0.10;;;;;;;;;;4995030;28;20038;-68
2021/10/27 18:57:55;;;;;;;0.30;0.10;;;;;;;;;;4994546;28;20145;-68
2021/10/27 19:11:22;;;;;;;0.33;0.10;;;;;;;;;;4975261;28;20528;-68
2021/10/27 19:16:14;;;;;;;0.38;0.10;;;;;;;;;;4975181;28;20033;-68
2021/10/27 19:18:39;;;;;;;0.75;0.10;;;;;;;;;;4958788;28;20027;-68
2021/10/27 19:21:04;;;;;;;0.30;0.10;;;;;;;;;;4974774;28;20461;-67
2021/10/27 19:23:31;;;;;;;0.60;0.20;;;;;;;;;;4975013;28;20265;-67
2021/10/27 19:26:14;;;;;;;0.30;0.10;;;;;;;;;;4974886;28;20061;-67
2021/10/27 19:28:45;;;;;;;1.00;0.15;;;;;;;;;;4974766;28;20374;-68
2021/10/27 20:07:09;;;;;;;0.20;0.20;;;;;;;;;;5035070;28;20037;-68
2021/10/27 20:15:17;;;;;;;0.10;0.00;;;;;;;;;;5034780;28;20071;-67
2021/10/27 20:28:44;;;;;;;0.30;0.17;;;;;;;;;;5034746;28;20033;-68
2021/10/27 20:50:31;;;;;;;0.98;0.30;;;;;;;;;;5034103;28;20380;-67
2021/10/27 20:53:16;;;;;;;0.13;0.10;;;;;;;;;;5034158;28;20049;-68
2021/10/27 20:55:41;;;;;;;0.25;0.10;;;;;;;;;;5033997;28;20143;-67
2021/10/27 20:58:16;;;;;;;0.80;0.20;;;;;;;;;;5033868;28;20441;-68
2021/10/27 21:01:06;;;;;;;0.32;0.10;;;;;;;;;;5033602;28;20132;-68